sensor_id;sensor_type;location;lat;lon;timestamp;P1;durP1;ratioP1;P2;durP2;ratioP2
32186;SDS011;18686;53.084;8.872;2023-01-25T00:01:52;17.75;;;14.15;;
32186;SDS011;18686;53.084;8.872;2023-01-25T00:04:21;16.35;;;13.90;;
32186;SDS011;18686;53.084;8.872;2023-01-25T00:06:50;16.40;;;14.45;;
32186;SDS011;18686;53.084;8.872;2023-01-25T00:09:18;15.70;;;13.80;;
32186;SDS011;18686;53.084;8.872;2023-01-25T00:11:47;16.83;;;14.50;;
32186;SDS011;18686;53.084;8.872;2023-01-25T00:14:17;17.65;;;14.30;;
32186;SDS011;18686;53.084;8.872;2023-01-25T00:16:45;16.77;;;14.98;;
32186;SDS011;18686;53.084;8.872;2023-01-25T00:19:14;17.13;;;15.15;;
32186;SDS011;18686;53.084;8.872;2023-01-25T00:21:42;18.83;;;15.65;;
32186;SDS011;18686;53.084;8.872;2023-01-25T00:24:10;18.52;;;15.65;;
32186;SDS011;18686;53.084;8.872;2023-01-25T00:26:40;17.20;;;15.32;;
32186;SDS011;18686;53.084;8.872;2023-01-25T00:29:10;16.85;;;14.73;;
32186;SDS011;18686;53.084;8.872;2023-01-25T00:31:48;17.88;;;15.93;;
32186;SDS011;18686;53.084;8.872;2023-01-25T00:34:36;16.67;;;14.93;;
32186;SDS011;18686;53.084;8.872;2023-01-25T00:37:19;19.90;;;15.50;;
32186;SDS011;18686;53.084;8.872;2023-01-25T00:39:50;17.25;;;14.63;;
32186;SDS011;18686;53.084;8.872;2023-01-25T00:42:19;16.55;;;14.23;;
32186;SDS011;18686;53.084;8.872;2023-01-25T00:44:47;16.25;;;14.55;;
32186;SDS011;18686;53.084;8.872;2023-01-25T00:47:19;17.40;;;14.48;;
32186;SDS011;18686;53.084;8.872;2023-01-25T00:49:48;16.30;;;14.43;;
32186;SDS011;18686;53.084;8.872;2023-01-25T00:52:16;15.82;;;14.18;;
32186;SDS011;18686;53.084;8.872;2023-01-25T00:54:45;17.40;;;14.65;;
32186;SDS011;18686;53.084;8.872;2023-01-25T00:57:13;17.50;;;15.60;;
32186;SDS011;18686;53.084;8.872;2023-01-25T00:59:41;17.48;;;15.23;;
32186;SDS011;18686;53.084;8.872;2023-01-25T01:02:12;19.15;;;15.93;;
32186;SDS011;18686;53.084;8.872;2023-01-25T01:04:42;18.77;;;16.77;;
32186;SDS011;18686;53.084;8.872;2023-01-25T01:07:11;18.92;;;16.35;;
32186;SDS011;18686;53.084;8.872;2023-01-25T01:09:40;17.67;;;15.82;;
32186;SDS011;18686;53.084;8.872;2023-01-25T01:12:08;17.70;;;15.85;;
32186;SDS011;18686;53.084;8.872;2023-01-25T01:14:37;20.25;;;17.05;;
32186;SDS011;18686;53.084;8.872;2023-01-25T01:17:05;19.10;;;16.45;;
32186;SDS011;18686;53.084;8.872;2023-01-25T01:19:33;19.60;;;17.60;;
32186;SDS011;18686;53.084;8.872;2023-01-25T01:22:03;20.02;;;17.20;;
32186;SDS011;18686;53.084;8.872;2023-01-25T01:24:31;19.92;;;17.83;;
32186;SDS011;18686;53.084;8.872;2023-01-25T01:27:01;20.23;;;18.00;;
32186;SDS011;18686;53.084;8.872;2023-01-25T01:29:29;20.48;;;18.27;;
32186;SDS011;18686;53.084;8.872;2023-01-25T01:31:57;19.67;;;15.88;;
32186;SDS011;18686;53.084;8.872;2023-01-25T01:34:26;19.27;;;16.35;;
32186;SDS011;18686;53.084;8.872;2023-01-25T01:37:27;20.42;;;17.52;;
32186;SDS011;18686;53.084;8.872;2023-01-25T01:39:55;20.85;;;18.40;;
32186;SDS011;18686;53.084;8.872;2023-01-25T01:42:24;20.92;;;17.15;;
32186;SDS011;18686;53.084;8.872;2023-01-25T01:44:52;20.00;;;17.90;;
32186;SDS011;18686;53.084;8.872;2023-01-25T01:47:23;20.48;;;18.27;;
32186;SDS011;18686;53.084;8.872;2023-01-25T01:49:59;20.40;;;17.92;;
32186;SDS011;18686;53.084;8.872;2023-01-25T01:52:34;20.58;;;17.40;;
32186;SDS011;18686;53.084;8.872;2023-01-25T01:55:05;21.05;;;17.38;;
32186;SDS011;18686;53.084;8.872;2023-01-25T01:57:36;20.73;;;18.58;;
32186;SDS011;18686;53.084;8.872;2023-01-25T02:00:11;20.63;;;17.50;;
32186;SDS011;18686;53.084;8.872;2023-01-25T02:02:43;19.50;;;17.33;;
32186;SDS011;18686;53.084;8.872;2023-01-25T02:05:15;20.02;;;17.73;;
32186;SDS011;18686;53.084;8.872;2023-01-25T02:10:20;20.55;;;17.98;;
32186;SDS011;18686;53.084;8.872;2023-01-25T02:12:54;22.98;;;19.00;;
32186;SDS011;18686;53.084;8.872;2023-01-25T02:15:26;19.95;;;17.88;;
32186;SDS011;18686;53.084;8.872;2023-01-25T02:18:00;21.13;;;18.85;;
32186;SDS011;18686;53.084;8.872;2023-01-25T02:20:32;23.58;;;19.70;;
32186;SDS011;18686;53.084;8.872;2023-01-25T02:23:07;21.33;;;19.02;;
32186;SDS011;18686;53.084;8.872;2023-01-25T02:25:41;24.35;;;19.73;;
32186;SDS011;18686;53.084;8.872;2023-01-25T02:28:10;23.55;;;19.73;;
32186;SDS011;18686;53.084;8.872;2023-01-25T02:30:43;20.60;;;17.73;;
32186;SDS011;18686;53.084;8.872;2023-01-25T02:33:14;19.65;;;17.55;;
32186;SDS011;18686;53.084;8.872;2023-01-25T02:35:43;21.88;;;18.95;;
32186;SDS011;18686;53.084;8.872;2023-01-25T02:38:15;22.38;;;18.80;;
32186;SDS011;18686;53.084;8.872;2023-01-25T02:40:52;22.80;;;19.25;;
32186;SDS011;18686;53.084;8.872;2023-01-25T02:43:28;23.08;;;19.05;;
32186;SDS011;18686;53.084;8.872;2023-01-25T02:46:02;22.00;;;19.38;;
32186;SDS011;18686;53.084;8.872;2023-01-25T02:48:37;25.92;;;21.02;;
32186;SDS011;18686;53.084;8.872;2023-01-25T02:51:06;25.15;;;20.67;;
32186;SDS011;18686;53.084;8.872;2023-01-25T02:53:38;26.02;;;21.30;;
32186;SDS011;18686;53.084;8.872;2023-01-25T02:56:08;24.13;;;20.27;;
32186;SDS011;18686;53.084;8.872;2023-01-25T02:58:36;29.30;;;22.88;;
32186;SDS011;18686;53.084;8.872;2023-01-25T03:01:04;29.67;;;23.02;;
32186;SDS011;18686;53.084;8.872;2023-01-25T03:03:32;26.67;;;22.98;;
32186;SDS011;18686;53.084;8.872;2023-01-25T03:06:01;27.23;;;22.42;;
32186;SDS011;18686;53.084;8.872;2023-01-25T03:08:29;25.92;;;23.02;;
32186;SDS011;18686;53.084;8.872;2023-01-25T03:10:58;28.25;;;22.42;;
32186;SDS011;18686;53.084;8.872;2023-01-25T03:13:30;28.13;;;23.33;;
32186;SDS011;18686;53.084;8.872;2023-01-25T03:16:00;27.42;;;23.58;;
32186;SDS011;18686;53.084;8.872;2023-01-25T03:18:29;28.48;;;23.45;;
32186;SDS011;18686;53.084;8.872;2023-01-25T03:21:03;26.65;;;23.75;;
32186;SDS011;18686;53.084;8.872;2023-01-25T03:23:32;26.63;;;23.33;;
32186;SDS011;18686;53.084;8.872;2023-01-25T03:26:05;31.73;;;24.50;;
32186;SDS011;18686;53.084;8.872;2023-01-25T03:28:38;28.80;;;23.70;;
32186;SDS011;18686;53.084;8.872;2023-01-25T03:31:08;30.25;;;24.55;;
32186;SDS011;18686;53.084;8.872;2023-01-25T03:33:38;31.52;;;26.30;;
32186;SDS011;18686;53.084;8.872;2023-01-25T03:36:06;29.95;;;24.98;;
32186;SDS011;18686;53.084;8.872;2023-01-25T03:38:36;36.40;;;27.13;;
32186;SDS011;18686;53.084;8.872;2023-01-25T03:41:05;34.80;;;27.13;;
32186;SDS011;18686;53.084;8.872;2023-01-25T03:43:35;37.00;;;28.25;;
32186;SDS011;18686;53.084;8.872;2023-01-25T03:46:06;37.08;;;28.02;;
32186;SDS011;18686;53.084;8.872;2023-01-25T03:48:35;35.53;;;27.48;;
32186;SDS011;18686;53.084;8.872;2023-01-25T03:51:04;36.45;;;29.13;;
32186;SDS011;18686;53.084;8.872;2023-01-25T03:53:32;38.95;;;29.98;;
32186;SDS011;18686;53.084;8.872;2023-01-25T03:56:10;40.20;;;30.33;;
32186;SDS011;18686;53.084;8.872;2023-01-25T03:59:08;38.90;;;30.17;;
32186;SDS011;18686;53.084;8.872;2023-01-25T04:01:37;38.92;;;29.27;;
32186;SDS011;18686;53.084;8.872;2023-01-25T04:04:06;39.45;;;29.92;;
32186;SDS011;18686;53.084;8.872;2023-01-25T04:06:36;40.20;;;30.80;;
32186;SDS011;18686;53.084;8.872;2023-01-25T04:09:05;40.85;;;30.90;;
32186;SDS011;18686;53.084;8.872;2023-01-25T04:11:38;40.33;;;30.52;;
32186;SDS011;18686;53.084;8.872;2023-01-25T04:14:08;43.88;;;32.58;;
32186;SDS011;18686;53.084;8.872;2023-01-25T04:16:43;38.15;;;31.38;;
32186;SDS011;18686;53.084;8.872;2023-01-25T04:19:41;42.40;;;31.90;;
32186;SDS011;18686;53.084;8.872;2023-01-25T04:22:12;45.70;;;33.20;;
32186;SDS011;18686;53.084;8.872;2023-01-25T04:24:41;44.22;;;32.75;;
32186;SDS011;18686;53.084;8.872;2023-01-25T04:27:09;44.30;;;33.40;;
32186;SDS011;18686;53.084;8.872;2023-01-25T04:29:48;46.97;;;35.10;;
32186;SDS011;18686;53.084;8.872;2023-01-25T04:32:19;47.00;;;34.08;;
32186;SDS011;18686;53.084;8.872;2023-01-25T04:34:47;43.38;;;33.70;;
32186;SDS011;18686;53.084;8.872;2023-01-25T04:37:19;43.30;;;34.15;;
32186;SDS011;18686;53.084;8.872;2023-01-25T04:39:51;42.65;;;33.58;;
32186;SDS011;18686;53.084;8.872;2023-01-25T04:42:20;43.75;;;32.97;;
32186;SDS011;18686;53.084;8.872;2023-01-25T04:44:53;44.10;;;33.95;;
32186;SDS011;18686;53.084;8.872;2023-01-25T04:47:22;49.35;;;35.13;;
32186;SDS011;18686;53.084;8.872;2023-01-25T04:49:50;44.58;;;33.83;;
32186;SDS011;18686;53.084;8.872;2023-01-25T04:52:22;42.22;;;31.30;;
32186;SDS011;18686;53.084;8.872;2023-01-25T04:54:51;42.90;;;32.75;;
32186;SDS011;18686;53.084;8.872;2023-01-25T04:57:19;40.65;;;30.70;;
32186;SDS011;18686;53.084;8.872;2023-01-25T04:59:50;37.58;;;29.50;;
32186;SDS011;18686;53.084;8.872;2023-01-25T05:02:22;38.45;;;29.02;;
32186;SDS011;18686;53.084;8.872;2023-01-25T05:04:51;40.63;;;30.17;;
32186;SDS011;18686;53.084;8.872;2023-01-25T05:07:20;35.50;;;27.30;;
32186;SDS011;18686;53.084;8.872;2023-01-25T05:09:48;37.97;;;28.35;;
32186;SDS011;18686;53.084;8.872;2023-01-25T05:12:18;36.38;;;27.92;;
32186;SDS011;18686;53.084;8.872;2023-01-25T05:14:52;34.55;;;27.58;;
32186;SDS011;18686;53.084;8.872;2023-01-25T05:17:22;34.60;;;27.33;;
32186;SDS011;18686;53.084;8.872;2023-01-25T05:19:50;37.42;;;29.27;;
32186;SDS011;18686;53.084;8.872;2023-01-25T05:22:21;38.08;;;30.35;;
32186;SDS011;18686;53.084;8.872;2023-01-25T05:24:51;32.40;;;27.00;;
32186;SDS011;18686;53.084;8.872;2023-01-25T05:27:20;35.92;;;28.88;;
32186;SDS011;18686;53.084;8.872;2023-01-25T05:29:54;35.15;;;27.90;;
32186;SDS011;18686;53.084;8.872;2023-01-25T05:32:48;33.80;;;27.38;;
32186;SDS011;18686;53.084;8.872;2023-01-25T05:35:16;33.78;;;27.38;;
32186;SDS011;18686;53.084;8.872;2023-01-25T05:37:46;35.58;;;27.42;;
32186;SDS011;18686;53.084;8.872;2023-01-25T05:40:20;37.17;;;28.63;;
32186;SDS011;18686;53.084;8.872;2023-01-25T05:42:52;36.65;;;28.90;;
32186;SDS011;18686;53.084;8.872;2023-01-25T05:45:22;39.90;;;30.77;;
32186;SDS011;18686;53.084;8.872;2023-01-25T05:47:54;39.72;;;31.48;;
32186;SDS011;18686;53.084;8.872;2023-01-25T05:50:23;39.97;;;29.40;;
32186;SDS011;18686;53.084;8.872;2023-01-25T05:52:59;38.65;;;29.80;;
32186;SDS011;18686;53.084;8.872;2023-01-25T05:55:28;38.95;;;31.05;;
32186;SDS011;18686;53.084;8.872;2023-01-25T05:58:01;37.83;;;30.60;;
32186;SDS011;18686;53.084;8.872;2023-01-25T06:00:30;41.45;;;30.63;;
32186;SDS011;18686;53.084;8.872;2023-01-25T06:03:00;40.50;;;30.95;;
32186;SDS011;18686;53.084;8.872;2023-01-25T06:05:31;40.20;;;31.08;;
32186;SDS011;18686;53.084;8.872;2023-01-25T06:07:59;41.45;;;31.23;;
32186;SDS011;18686;53.084;8.872;2023-01-25T06:10:36;41.03;;;31.55;;
32186;SDS011;18686;53.084;8.872;2023-01-25T06:13:04;40.88;;;31.33;;
32186;SDS011;18686;53.084;8.872;2023-01-25T06:15:32;39.20;;;30.33;;
32186;SDS011;18686;53.084;8.872;2023-01-25T06:18:34;42.40;;;31.45;;
32186;SDS011;18686;53.084;8.872;2023-01-25T06:21:29;42.38;;;31.35;;
32186;SDS011;18686;53.084;8.872;2023-01-25T06:23:57;40.58;;;30.88;;
32186;SDS011;18686;53.084;8.872;2023-01-25T06:26:25;43.10;;;30.88;;
32186;SDS011;18686;53.084;8.872;2023-01-25T06:28:53;37.88;;;29.95;;
32186;SDS011;18686;53.084;8.872;2023-01-25T06:31:21;38.13;;;30.30;;
32186;SDS011;18686;53.084;8.872;2023-01-25T06:33:51;40.33;;;31.00;;
32186;SDS011;18686;53.084;8.872;2023-01-25T06:36:21;42.38;;;31.90;;
32186;SDS011;18686;53.084;8.872;2023-01-25T06:38:50;40.63;;;31.00;;
32186;SDS011;18686;53.084;8.872;2023-01-25T06:41:19;44.10;;;32.15;;
32186;SDS011;18686;53.084;8.872;2023-01-25T06:43:49;41.40;;;32.45;;
32186;SDS011;18686;53.084;8.872;2023-01-25T06:46:18;42.03;;;31.27;;
32186;SDS011;18686;53.084;8.872;2023-01-25T06:48:46;43.22;;;32.80;;
32186;SDS011;18686;53.084;8.872;2023-01-25T06:51:16;40.08;;;31.92;;
32186;SDS011;18686;53.084;8.872;2023-01-25T06:53:45;40.70;;;30.73;;
32186;SDS011;18686;53.084;8.872;2023-01-25T06:56:14;38.75;;;30.08;;
32186;SDS011;18686;53.084;8.872;2023-01-25T06:58:44;38.90;;;30.70;;
32186;SDS011;18686;53.084;8.872;2023-01-25T07:01:13;41.17;;;31.08;;
32186;SDS011;18686;53.084;8.872;2023-01-25T07:03:46;41.58;;;31.30;;
32186;SDS011;18686;53.084;8.872;2023-01-25T07:06:20;37.58;;;30.15;;
32186;SDS011;18686;53.084;8.872;2023-01-25T07:08:48;40.97;;;31.38;;
32186;SDS011;18686;53.084;8.872;2023-01-25T07:11:17;39.63;;;30.73;;
32186;SDS011;18686;53.084;8.872;2023-01-25T07:13:45;39.33;;;30.85;;
32186;SDS011;18686;53.084;8.872;2023-01-25T07:16:15;37.15;;;30.38;;
32186;SDS011;18686;53.084;8.872;2023-01-25T07:18:44;42.72;;;31.65;;
32186;SDS011;18686;53.084;8.872;2023-01-25T07:21:13;40.65;;;31.35;;
32186;SDS011;18686;53.084;8.872;2023-01-25T07:23:44;39.58;;;30.70;;
32186;SDS011;18686;53.084;8.872;2023-01-25T07:26:13;39.60;;;31.10;;
32186;SDS011;18686;53.084;8.872;2023-01-25T07:28:44;40.85;;;31.60;;
32186;SDS011;18686;53.084;8.872;2023-01-25T07:31:12;40.72;;;31.48;;
32186;SDS011;18686;53.084;8.872;2023-01-25T07:33:41;40.00;;;31.42;;
32186;SDS011;18686;53.084;8.872;2023-01-25T07:36:09;40.42;;;31.30;;
32186;SDS011;18686;53.084;8.872;2023-01-25T07:38:38;39.60;;;31.38;;
32186;SDS011;18686;53.084;8.872;2023-01-25T07:41:07;40.75;;;31.65;;
32186;SDS011;18686;53.084;8.872;2023-01-25T07:43:36;40.50;;;31.67;;
32186;SDS011;18686;53.084;8.872;2023-01-25T07:46:05;41.78;;;32.40;;
32186;SDS011;18686;53.084;8.872;2023-01-25T07:48:36;37.97;;;31.30;;
32186;SDS011;18686;53.084;8.872;2023-01-25T07:51:06;41.85;;;33.50;;
32186;SDS011;18686;53.084;8.872;2023-01-25T07:53:48;44.35;;;33.47;;
32186;SDS011;18686;53.084;8.872;2023-01-25T07:56:20;42.47;;;33.38;;
32186;SDS011;18686;53.084;8.872;2023-01-25T07:58:50;40.95;;;32.00;;
32186;SDS011;18686;53.084;8.872;2023-01-25T08:01:19;38.90;;;31.40;;
32186;SDS011;18686;53.084;8.872;2023-01-25T08:03:49;40.17;;;32.35;;
32186;SDS011;18686;53.084;8.872;2023-01-25T08:06:22;39.78;;;31.77;;
32186;SDS011;18686;53.084;8.872;2023-01-25T08:08:53;44.00;;;31.92;;
32186;SDS011;18686;53.084;8.872;2023-01-25T08:11:23;39.50;;;32.10;;
32186;SDS011;18686;53.084;8.872;2023-01-25T08:13:53;42.42;;;32.45;;
32186;SDS011;18686;53.084;8.872;2023-01-25T08:16:22;39.20;;;31.05;;
32186;SDS011;18686;53.084;8.872;2023-01-25T08:18:52;39.20;;;31.42;;
32186;SDS011;18686;53.084;8.872;2023-01-25T08:21:22;42.90;;;31.75;;
32186;SDS011;18686;53.084;8.872;2023-01-25T08:23:55;38.72;;;31.42;;
32186;SDS011;18686;53.084;8.872;2023-01-25T08:26:25;38.97;;;31.38;;
32186;SDS011;18686;53.084;8.872;2023-01-25T08:28:54;39.33;;;30.52;;
32186;SDS011;18686;53.084;8.872;2023-01-25T08:31:24;39.63;;;31.58;;
32186;SDS011;18686;53.084;8.872;2023-01-25T08:33:54;41.13;;;31.92;;
32186;SDS011;18686;53.084;8.872;2023-01-25T08:36:23;43.13;;;32.88;;
32186;SDS011;18686;53.084;8.872;2023-01-25T08:38:53;41.03;;;32.63;;
32186;SDS011;18686;53.084;8.872;2023-01-25T08:41:23;43.63;;;33.30;;
32186;SDS011;18686;53.084;8.872;2023-01-25T08:43:54;41.97;;;31.98;;
32186;SDS011;18686;53.084;8.872;2023-01-25T08:46:23;39.83;;;32.03;;
32186;SDS011;18686;53.084;8.872;2023-01-25T08:48:57;40.58;;;33.05;;
32186;SDS011;18686;53.084;8.872;2023-01-25T08:51:26;42.88;;;33.30;;
32186;SDS011;18686;53.084;8.872;2023-01-25T08:53:55;46.80;;;34.78;;
32186;SDS011;18686;53.084;8.872;2023-01-25T08:56:23;40.83;;;32.63;;
32186;SDS011;18686;53.084;8.872;2023-01-25T08:58:53;42.78;;;33.30;;
32186;SDS011;18686;53.084;8.872;2023-01-25T09:01:21;43.70;;;34.20;;
32186;SDS011;18686;53.084;8.872;2023-01-25T09:03:49;41.15;;;32.28;;
32186;SDS011;18686;53.084;8.872;2023-01-25T09:06:18;43.58;;;32.88;;
32186;SDS011;18686;53.084;8.872;2023-01-25T09:08:46;41.88;;;32.80;;
32186;SDS011;18686;53.084;8.872;2023-01-25T09:11:15;43.70;;;33.88;;
32186;SDS011;18686;53.084;8.872;2023-01-25T09:13:44;46.03;;;33.65;;
32186;SDS011;18686;53.084;8.872;2023-01-25T09:16:19;45.00;;;34.03;;
32186;SDS011;18686;53.084;8.872;2023-01-25T09:18:54;46.53;;;35.08;;
32186;SDS011;18686;53.084;8.872;2023-01-25T09:21:24;42.95;;;33.10;;
32186;SDS011;18686;53.084;8.872;2023-01-25T09:23:53;45.35;;;34.33;;
32186;SDS011;18686;53.084;8.872;2023-01-25T09:26:37;43.47;;;34.28;;
32186;SDS011;18686;53.084;8.872;2023-01-25T09:29:15;40.97;;;31.95;;
32186;SDS011;18686;53.084;8.872;2023-01-25T09:31:44;43.10;;;32.40;;
32186;SDS011;18686;53.084;8.872;2023-01-25T09:34:35;42.85;;;32.58;;
32186;SDS011;18686;53.084;8.872;2023-01-25T09:37:03;42.13;;;31.55;;
32186;SDS011;18686;53.084;8.872;2023-01-25T09:39:32;41.90;;;31.10;;
32186;SDS011;18686;53.084;8.872;2023-01-25T09:42:10;38.92;;;30.00;;
32186;SDS011;18686;53.084;8.872;2023-01-25T09:45:01;38.67;;;29.75;;
32186;SDS011;18686;53.084;8.872;2023-01-25T09:47:46;33.83;;;27.00;;
32186;SDS011;18686;53.084;8.872;2023-01-25T09:50:24;37.13;;;28.27;;
32186;SDS011;18686;53.084;8.872;2023-01-25T09:53:18;37.42;;;29.05;;
32186;SDS011;18686;53.084;8.872;2023-01-25T09:56:08;34.15;;;26.73;;
32186;SDS011;18686;53.084;8.872;2023-01-25T09:58:39;33.25;;;26.27;;
32186;SDS011;18686;53.084;8.872;2023-01-25T10:04:09;36.92;;;26.98;;
32186;SDS011;18686;53.084;8.872;2023-01-25T10:06:41;33.13;;;26.65;;
32186;SDS011;18686;53.084;8.872;2023-01-25T10:09:26;36.13;;;28.33;;
32186;SDS011;18686;53.084;8.872;2023-01-25T10:12:03;32.05;;;26.70;;
32186;SDS011;18686;53.084;8.872;2023-01-25T10:14:41;33.72;;;26.40;;
32186;SDS011;18686;53.084;8.872;2023-01-25T10:17:11;30.95;;;24.88;;
32186;SDS011;18686;53.084;8.872;2023-01-25T10:22:26;30.67;;;25.23;;
32186;SDS011;18686;53.084;8.872;2023-01-25T10:24:59;31.05;;;25.25;;
32186;SDS011;18686;53.084;8.872;2023-01-25T10:27:54;30.38;;;23.80;;
32186;SDS011;18686;53.084;8.872;2023-01-25T10:30:33;29.63;;;24.20;;
32186;SDS011;18686;53.084;8.872;2023-01-25T10:33:09;29.02;;;23.98;;
32186;SDS011;18686;53.084;8.872;2023-01-25T10:35:42;27.85;;;23.10;;
32186;SDS011;18686;53.084;8.872;2023-01-25T10:38:14;29.55;;;24.13;;
32186;SDS011;18686;53.084;8.872;2023-01-25T10:40:48;29.38;;;23.63;;
32186;SDS011;18686;53.084;8.872;2023-01-25T10:43:22;32.20;;;25.77;;
32186;SDS011;18686;53.084;8.872;2023-01-25T10:45:50;32.15;;;23.95;;
32186;SDS011;18686;53.084;8.872;2023-01-25T10:48:19;34.22;;;26.42;;
32186;SDS011;18686;53.084;8.872;2023-01-25T10:50:52;33.35;;;26.90;;
32186;SDS011;18686;53.084;8.872;2023-01-25T10:53:23;35.60;;;26.58;;
32186;SDS011;18686;53.084;8.872;2023-01-25T10:58:50;36.33;;;26.73;;
32186;SDS011;18686;53.084;8.872;2023-01-25T11:01:32;36.35;;;27.67;;
32186;SDS011;18686;53.084;8.872;2023-01-25T11:04:02;36.35;;;28.73;;
32186;SDS011;18686;53.084;8.872;2023-01-25T11:06:51;42.20;;;30.73;;
32186;SDS011;18686;53.084;8.872;2023-01-25T11:09:30;39.80;;;28.40;;
32186;SDS011;18686;53.084;8.872;2023-01-25T11:12:00;36.67;;;27.50;;
32186;SDS011;18686;53.084;8.872;2023-01-25T11:14:30;39.65;;;30.73;;
32186;SDS011;18686;53.084;8.872;2023-01-25T11:16:59;39.45;;;29.55;;
32186;SDS011;18686;53.084;8.872;2023-01-25T11:19:31;39.45;;;29.65;;
32186;SDS011;18686;53.084;8.872;2023-01-25T11:22:02;41.63;;;30.80;;
32186;SDS011;18686;53.084;8.872;2023-01-25T11:24:33;44.90;;;33.00;;
32186;SDS011;18686;53.084;8.872;2023-01-25T11:27:19;41.88;;;30.67;;
32186;SDS011;18686;53.084;8.872;2023-01-25T11:32:37;40.63;;;30.67;;
32186;SDS011;18686;53.084;8.872;2023-01-25T11:35:11;45.00;;;31.40;;
32186;SDS011;18686;53.084;8.872;2023-01-25T11:37:48;40.47;;;30.67;;
32186;SDS011;18686;53.084;8.872;2023-01-25T11:40:31;46.13;;;33.35;;
32186;SDS011;18686;53.084;8.872;2023-01-25T11:43:08;44.58;;;33.20;;
32186;SDS011;18686;53.084;8.872;2023-01-25T11:45:51;43.15;;;31.40;;
32186;SDS011;18686;53.084;8.872;2023-01-25T11:48:36;43.95;;;32.47;;
32186;SDS011;18686;53.084;8.872;2023-01-25T11:51:30;44.45;;;32.65;;
32186;SDS011;18686;53.084;8.872;2023-01-25T11:56:52;42.65;;;32.50;;
32186;SDS011;18686;53.084;8.872;2023-01-25T11:59:29;41.20;;;32.30;;
32186;SDS011;18686;53.084;8.872;2023-01-25T12:02:21;44.85;;;31.48;;
32186;SDS011;18686;53.084;8.872;2023-01-25T12:08:19;43.10;;;32.28;;
32186;SDS011;18686;53.084;8.872;2023-01-25T12:11:05;42.42;;;32.33;;
32186;SDS011;18686;53.084;8.872;2023-01-25T12:13:44;43.80;;;32.30;;
32186;SDS011;18686;53.084;8.872;2023-01-25T12:16:24;44.65;;;32.10;;
32186;SDS011;18686;53.084;8.872;2023-01-25T12:19:11;45.20;;;33.03;;
32186;SDS011;18686;53.084;8.872;2023-01-25T12:22:04;44.55;;;33.22;;
32186;SDS011;18686;53.084;8.872;2023-01-25T12:24:43;42.83;;;32.08;;
32186;SDS011;18686;53.084;8.872;2023-01-25T12:27:25;44.85;;;34.15;;
32186;SDS011;18686;53.084;8.872;2023-01-25T12:30:03;42.92;;;31.42;;
32186;SDS011;18686;53.084;8.872;2023-01-25T12:32:43;42.35;;;32.05;;
32186;SDS011;18686;53.084;8.872;2023-01-25T12:35:22;41.10;;;30.23;;
32186;SDS011;18686;53.084;8.872;2023-01-25T12:37:57;42.42;;;30.17;;
32186;SDS011;18686;53.084;8.872;2023-01-25T12:43:06;39.92;;;28.48;;
32186;SDS011;18686;53.084;8.872;2023-01-25T12:45:42;38.83;;;28.33;;
32186;SDS011;18686;53.084;8.872;2023-01-25T12:48:13;39.08;;;29.58;;
32186;SDS011;18686;53.084;8.872;2023-01-25T12:50:47;40.13;;;29.65;;
32186;SDS011;18686;53.084;8.872;2023-01-25T12:55:50;43.47;;;31.38;;
32186;SDS011;18686;53.084;8.872;2023-01-25T12:58:21;40.85;;;30.83;;
32186;SDS011;18686;53.084;8.872;2023-01-25T13:01:07;41.42;;;31.95;;
32186;SDS011;18686;53.084;8.872;2023-01-25T13:03:46;42.45;;;32.00;;
32186;SDS011;18686;53.084;8.872;2023-01-25T13:06:30;44.33;;;32.97;;
32186;SDS011;18686;53.084;8.872;2023-01-25T13:09:05;47.20;;;34.58;;
32186;SDS011;18686;53.084;8.872;2023-01-25T13:11:41;44.72;;;33.22;;
32186;SDS011;18686;53.084;8.872;2023-01-25T13:14:19;43.20;;;33.42;;
32186;SDS011;18686;53.084;8.872;2023-01-25T13:17:10;43.25;;;32.40;;
32186;SDS011;18686;53.084;8.872;2023-01-25T13:19:46;41.13;;;31.13;;
32186;SDS011;18686;53.084;8.872;2023-01-25T13:25:24;42.80;;;32.35;;
32186;SDS011;18686;53.084;8.872;2023-01-25T13:30:59;41.58;;;32.35;;
32186;SDS011;18686;53.084;8.872;2023-01-25T13:33:32;44.17;;;33.03;;
32186;SDS011;18686;53.084;8.872;2023-01-25T13:42:15;41.15;;;32.40;;
32186;SDS011;18686;53.084;8.872;2023-01-25T13:44:46;39.92;;;31.30;;
32186;SDS011;18686;53.084;8.872;2023-01-25T13:47:18;40.78;;;31.05;;
32186;SDS011;18686;53.084;8.872;2023-01-25T13:49:51;42.53;;;31.95;;
32186;SDS011;18686;53.084;8.872;2023-01-25T13:52:24;42.42;;;32.35;;
32186;SDS011;18686;53.084;8.872;2023-01-25T13:54:53;38.70;;;29.75;;
32186;SDS011;18686;53.084;8.872;2023-01-25T13:57:24;39.75;;;31.20;;
32186;SDS011;18686;53.084;8.872;2023-01-25T13:59:57;41.90;;;32.35;;
32186;SDS011;18686;53.084;8.872;2023-01-25T14:02:39;45.30;;;33.33;;
32186;SDS011;18686;53.084;8.872;2023-01-25T14:05:17;46.50;;;33.88;;
32186;SDS011;18686;53.084;8.872;2023-01-25T14:07:48;46.55;;;34.08;;
32186;SDS011;18686;53.084;8.872;2023-01-25T14:10:19;43.78;;;33.13;;
32186;SDS011;18686;53.084;8.872;2023-01-25T14:12:50;45.95;;;35.30;;
32186;SDS011;18686;53.084;8.872;2023-01-25T14:15:20;49.75;;;36.38;;
32186;SDS011;18686;53.084;8.872;2023-01-25T14:20:41;46.05;;;34.60;;
32186;SDS011;18686;53.084;8.872;2023-01-25T14:23:21;43.10;;;32.38;;
32186;SDS011;18686;53.084;8.872;2023-01-25T14:25:51;43.55;;;33.85;;
32186;SDS011;18686;53.084;8.872;2023-01-25T14:28:20;48.17;;;36.35;;
32186;SDS011;18686;53.084;8.872;2023-01-25T14:30:49;53.83;;;37.90;;
32186;SDS011;18686;53.084;8.872;2023-01-25T14:33:20;53.72;;;38.53;;
32186;SDS011;18686;53.084;8.872;2023-01-25T14:35:52;48.88;;;35.13;;
32186;SDS011;18686;53.084;8.872;2023-01-25T14:38:30;46.60;;;35.22;;
32186;SDS011;18686;53.084;8.872;2023-01-25T14:41:02;49.05;;;36.63;;
32186;SDS011;18686;53.084;8.872;2023-01-25T14:43:37;54.28;;;38.17;;
32186;SDS011;18686;53.084;8.872;2023-01-25T14:46:18;58.90;;;42.17;;
32186;SDS011;18686;53.084;8.872;2023-01-25T14:48:48;63.88;;;44.17;;
32186;SDS011;18686;53.084;8.872;2023-01-25T14:51:23;63.15;;;44.33;;
32186;SDS011;18686;53.084;8.872;2023-01-25T14:53:57;72.53;;;48.65;;
32186;SDS011;18686;53.084;8.872;2023-01-25T14:56:28;71.18;;;47.90;;
32186;SDS011;18686;53.084;8.872;2023-01-25T14:59:03;123.72;;;82.82;;
32186;SDS011;18686;53.084;8.872;2023-01-25T15:01:35;76.70;;;51.50;;
32186;SDS011;18686;53.084;8.872;2023-01-25T15:04:08;75.65;;;50.30;;
32186;SDS011;18686;53.084;8.872;2023-01-25T15:06:45;69.47;;;46.25;;
32186;SDS011;18686;53.084;8.872;2023-01-25T15:12:03;62.65;;;44.25;;
32186;SDS011;18686;53.084;8.872;2023-01-25T15:14:48;61.60;;;42.38;;
32186;SDS011;18686;53.084;8.872;2023-01-25T15:17:37;61.47;;;41.05;;
32186;SDS011;18686;53.084;8.872;2023-01-25T15:20:22;63.15;;;42.60;;
32186;SDS011;18686;53.084;8.872;2023-01-25T15:23:00;58.13;;;40.85;;
32186;SDS011;18686;53.084;8.872;2023-01-25T15:25:30;57.28;;;39.85;;
32186;SDS011;18686;53.084;8.872;2023-01-25T15:27:58;58.05;;;39.28;;
32186;SDS011;18686;53.084;8.872;2023-01-25T15:30:26;54.33;;;39.03;;
32186;SDS011;18686;53.084;8.872;2023-01-25T15:32:54;53.72;;;39.05;;
32186;SDS011;18686;53.084;8.872;2023-01-25T15:35:23;58.92;;;41.03;;
32186;SDS011;18686;53.084;8.872;2023-01-25T15:37:51;64.60;;;44.47;;